Columbus, North Dakota
Current Conditions -  °F | °C
As of 3:00 AM on Saturday 29 Nov 2014 (Local Time) from CYEN Reporting Station
Overcast Overcast  
Wind Chill: -19°   Ceiling: 400
Heat Index: -10°   Visibility: 15mi
Dew Point: -12°   Wind: 15mph
Humidity: 86%   Direction: 300°WNW
Pressure: 29.46"   Gusts: NA
Location:  48.9°N, 102.78°W
Report Text: CYEN 290900Z 30013KT 15SM OVC004 M10/M12 A2946 RMK ST8 SLP019
Loading
Personal Weather Stations






























Interactive Weather Map New forecast layout! Learn more

10-Day Weather Forecast

Advertisements
Track Severe Weather on mobile